Atlantic Beach, Florida
Current Conditions -  °F | °C
As of 1:52 PM on Saturday 20 Dec 2014 (Local Time) from KNRB Reporting Station
Overcast Overcast  
Wind Chill: 65°   Ceiling: 9500
Heat Index: 65°   Visibility: 10mi
Dew Point: 54°   Wind: 9mph
Humidity: 68%   Direction: 20°NNE
Pressure: 30.09"   Gusts: NA
Location:  30.33°N, 81.4°W
Report Text: KNRB 201852Z AUTO 02008KT 10SM OVC095 18/12 A3009 RMK AO2 SLP189 T01830122 $
Loading
Personal Weather Stations






























Interactive Weather Map New forecast layout! Learn more

10-Day Weather Forecast

Advertisements
Track Severe Weather on mobile